sensor_id;sensor_type;location;lat;lon;timestamp;pressure;altitude;pressure_sealevel;temperature;humidity
72423;BME280;60413;55.658;37.498;2022-10-23T00:01:44;98967.84;;;4.92;100.00
72423;BME280;60413;55.658;37.498;2022-10-23T00:04:18;99014.16;;;5.30;100.00
72423;BME280;60413;55.658;37.498;2022-10-23T00:06:48;98981.66;;;5.06;100.00
72423;BME280;60413;55.658;37.498;2022-10-23T00:09:20;98944.72;;;4.89;100.00
72423;BME280;60413;55.658;37.498;2022-10-23T00:11:57;98940.34;;;4.76;100.00
72423;BME280;60413;55.658;37.498;2022-10-23T00:14:28;98964.03;;;4.81;100.00
72423;BME280;60413;55.658;37.498;2022-10-23T00:16:54;98952.81;;;4.60;100.00
72423;BME280;60413;55.658;37.498;2022-10-23T00:19:27;98958.03;;;4.67;100.00
72423;BME280;60413;55.658;37.498;2022-10-23T00:21:53;98947.59;;;4.74;100.00
72423;BME280;60413;55.658;37.498;2022-10-23T00:24:21;98909.91;;;4.43;100.00
72423;BME280;60413;55.658;37.498;2022-10-23T00:26:54;98935.16;;;4.62;100.00
72423;BME280;60413;55.658;37.498;2022-10-23T00:29:26;98930.56;;;4.64;100.00
72423;BME280;60413;55.658;37.498;2022-10-23T00:31:56;98947.38;;;4.75;100.00
72423;BME280;60413;55.658;37.498;2022-10-23T00:34:28;98895.66;;;4.39;100.00
72423;BME280;60413;55.658;37.498;2022-10-23T00:36:54;98975.47;;;4.87;100.00
72423;BME280;60413;55.658;37.498;2022-10-23T00:39:22;98972.88;;;4.80;100.00
72423;BME280;60413;55.658;37.498;2022-10-23T00:41:48;98905.69;;;4.35;100.00
72423;BME280;60413;55.658;37.498;2022-10-23T00:46:45;98943.56;;;4.85;100.00
72423;BME280;60413;55.658;37.498;2022-10-23T00:49:14;98894.44;;;4.48;100.00
72423;BME280;60413;55.658;37.498;2022-10-23T00:51:48;98932.31;;;4.71;100.00
72423;BME280;60413;55.658;37.498;2022-10-23T00:54:18;98883.19;;;4.41;100.00
72423;BME280;60413;55.658;37.498;2022-10-23T00:56:48;98931.72;;;4.69;100.00
72423;BME280;60413;55.658;37.498;2022-10-23T00:59:19;98897.03;;;4.48;100.00
72423;BME280;60413;55.658;37.498;2022-10-23T01:01:47;98873.19;;;4.24;100.00
72423;BME280;60413;55.658;37.498;2022-10-23T01:04:19;98862.78;;;4.18;100.00
72423;BME280;60413;55.658;37.498;2022-10-23T01:09:54;98861.38;;;4.15;100.00
72423;BME280;60413;55.658;37.498;2022-10-23T01:12:51;98839.31;;;4.18;100.00
72423;BME280;60413;55.658;37.498;2022-10-23T01:17:55;98870.38;;;4.39;100.00
72423;BME280;60413;55.658;37.498;2022-10-23T01:20:44;98846.09;;;4.25;100.00
72423;BME280;60413;55.658;37.498;2022-10-23T01:26:31;98894.19;;;4.70;100.00
72423;BME280;60413;55.658;37.498;2022-10-23T01:29:11;98899.59;;;4.75;100.00
72423;BME280;60413;55.658;37.498;2022-10-23T01:31:55;98863.94;;;4.42;100.00
72423;BME280;60413;55.658;37.498;2022-10-23T01:34:29;98902.03;;;4.63;100.00
72423;BME280;60413;55.658;37.498;2022-10-23T01:36:59;98888.41;;;4.41;100.00
72423;BME280;60413;55.658;37.498;2022-10-23T01:39:34;98816.06;;;3.83;100.00
72423;BME280;60413;55.658;37.498;2022-10-23T01:42:14;98818.28;;;3.73;100.00
72423;BME280;60413;55.658;37.498;2022-10-23T01:44:52;98915.94;;;4.10;100.00
72423;BME280;60413;55.658;37.498;2022-10-23T01:47:24;98871.59;;;3.83;100.00
72423;BME280;60413;55.658;37.498;2022-10-23T01:50:05;98905.31;;;4.05;100.00
72423;BME280;60413;55.658;37.498;2022-10-23T01:52:33;98899.50;;;4.03;100.00
72423;BME280;60413;55.658;37.498;2022-10-23T01:55:03;98851.34;;;3.72;100.00
72423;BME280;60413;55.658;37.498;2022-10-23T01:57:33;98867.81;;;3.79;100.00
72423;BME280;60413;55.658;37.498;2022-10-23T02:00:10;98849.75;;;3.58;100.00
72423;BME280;60413;55.658;37.498;2022-10-23T02:02:55;98881.63;;;3.73;100.00
72423;BME280;60413;55.658;37.498;2022-10-23T02:05:30;98872.78;;;3.61;100.00
72423;BME280;60413;55.658;37.498;2022-10-23T02:07:57;98860.38;;;3.63;100.00
72423;BME280;60413;55.658;37.498;2022-10-23T02:10:45;98848.53;;;3.47;100.00
72423;BME280;60413;55.658;37.498;2022-10-23T02:16:07;98903.25;;;3.67;100.00
72423;BME280;60413;55.658;37.498;2022-10-23T02:21:40;98875.19;;;3.62;100.00
72423;BME280;60413;55.658;37.498;2022-10-23T02:24:15;98842.50;;;3.40;100.00
72423;BME280;60413;55.658;37.498;2022-10-23T02:26:52;98840.88;;;3.39;100.00
72423;BME280;60413;55.658;37.498;2022-10-23T02:29:34;98879.22;;;3.58;100.00
72423;BME280;60413;55.658;37.498;2022-10-23T02:32:05;98818.59;;;3.09;100.00
72423;BME280;60413;55.658;37.498;2022-10-23T02:34:33;98834.25;;;3.16;100.00
72423;BME280;60413;55.658;37.498;2022-10-23T02:36:59;98822.00;;;3.10;100.00
72423;BME280;60413;55.658;37.498;2022-10-23T02:39:26;98815.19;;;3.09;100.00
72423;BME280;60413;55.658;37.498;2022-10-23T02:42:07;98866.16;;;3.51;100.00
72423;BME280;60413;55.658;37.498;2022-10-23T02:47:45;98860.75;;;3.40;100.00
72423;BME280;60413;55.658;37.498;2022-10-23T02:53:12;98853.09;;;3.31;100.00
72423;BME280;60413;55.658;37.498;2022-10-23T02:56:21;98857.53;;;3.31;100.00
72423;BME280;60413;55.658;37.498;2022-10-23T03:01:28;98800.28;;;2.76;100.00
72423;BME280;60413;55.658;37.498;2022-10-23T03:03:59;98838.41;;;3.10;100.00
72423;BME280;60413;55.658;37.498;2022-10-23T03:06:26;98854.91;;;3.31;100.00
72423;BME280;60413;55.658;37.498;2022-10-23T03:08:57;98860.91;;;3.25;100.00
72423;BME280;60413;55.658;37.498;2022-10-23T03:11:24;98814.75;;;2.99;100.00
72423;BME280;60413;55.658;37.498;2022-10-23T03:13:51;98839.06;;;3.12;100.00
72423;BME280;60413;55.658;37.498;2022-10-23T03:16:16;98812.97;;;2.99;100.00
72423;BME280;60413;55.658;37.498;2022-10-23T03:18:49;98840.63;;;3.13;100.00
72423;BME280;60413;55.658;37.498;2022-10-23T03:21:16;98824.81;;;3.08;100.00
72423;BME280;60413;55.658;37.498;2022-10-23T03:23:42;98837.25;;;3.13;100.00
72423;BME280;60413;55.658;37.498;2022-10-23T03:26:08;98837.19;;;3.00;100.00
72423;BME280;60413;55.658;37.498;2022-10-23T03:28:40;98827.19;;;2.96;100.00
72423;BME280;60413;55.658;37.498;2022-10-23T03:31:06;98817.97;;;3.01;100.00
72423;BME280;60413;55.658;37.498;2022-10-23T03:33:32;98818.97;;;2.93;100.00
72423;BME280;60413;55.658;37.498;2022-10-23T03:36:06;98810.53;;;2.84;100.00
72423;BME280;60413;55.658;37.498;2022-10-23T03:38:33;98812.34;;;2.97;100.00
72423;BME280;60413;55.658;37.498;2022-10-23T03:41:03;98842.44;;;3.13;100.00
72423;BME280;60413;55.658;37.498;2022-10-23T03:43:31;98788.88;;;2.77;100.00
72423;BME280;60413;55.658;37.498;2022-10-23T03:45:57;98830.75;;;2.95;100.00
72423;BME280;60413;55.658;37.498;2022-10-23T03:48:24;98831.59;;;2.96;100.00
72423;BME280;60413;55.658;37.498;2022-10-23T03:50:55;98794.63;;;2.59;100.00
72423;BME280;60413;55.658;37.498;2022-10-23T03:53:23;98768.38;;;2.54;100.00
72423;BME280;60413;55.658;37.498;2022-10-23T03:55:49;98768.38;;;2.54;100.00
72423;BME280;60413;55.658;37.498;2022-10-23T03:58:16;98772.59;;;2.62;100.00
72423;BME280;60413;55.658;37.498;2022-10-23T04:00:42;98764.16;;;2.46;100.00
72423;BME280;60413;55.658;37.498;2022-10-23T04:03:08;98775.56;;;2.52;100.00
72423;BME280;60413;55.658;37.498;2022-10-23T04:05:37;98738.06;;;2.26;100.00
72423;BME280;60413;55.658;37.498;2022-10-23T04:08:03;98781.34;;;2.47;100.00
72423;BME280;60413;55.658;37.498;2022-10-23T04:10:33;98743.63;;;2.23;100.00
72423;BME280;60413;55.658;37.498;2022-10-23T04:12:59;98749.69;;;2.37;100.00
72423;BME280;60413;55.658;37.498;2022-10-23T04:15:26;98749.28;;;2.33;100.00
72423;BME280;60413;55.658;37.498;2022-10-23T04:17:52;98736.25;;;2.27;100.00
72423;BME280;60413;55.658;37.498;2022-10-23T04:20:18;98745.09;;;2.32;100.00
72423;BME280;60413;55.658;37.498;2022-10-23T04:22:44;98749.31;;;2.40;100.00
72423;BME280;60413;55.658;37.498;2022-10-23T04:25:13;98752.94;;;2.46;100.00
72423;BME280;60413;55.658;37.498;2022-10-23T04:27:39;98757.13;;;2.47;100.00
72423;BME280;60413;55.658;37.498;2022-10-23T04:30:08;98716.50;;;2.32;100.00
72423;BME280;60413;55.658;37.498;2022-10-23T04:32:39;98780.25;;;2.76;100.00
72423;BME280;60413;55.658;37.498;2022-10-23T04:35:05;98736.16;;;2.55;100.00
72423;BME280;60413;55.658;37.498;2022-10-23T04:37:31;98754.41;;;2.62;100.00
72423;BME280;60413;55.658;37.498;2022-10-23T04:39:58;98766.88;;;2.80;100.00
72423;BME280;60413;55.658;37.498;2022-10-23T04:42:24;98769.09;;;2.89;100.00
72423;BME280;60413;55.658;37.498;2022-10-23T04:45:00;98715.34;;;2.55;100.00
72423;BME280;60413;55.658;37.498;2022-10-23T04:47:27;98790.38;;;3.13;100.00
72423;BME280;60413;55.658;37.498;2022-10-23T04:49:56;98752.66;;;2.95;100.00
72423;BME280;60413;55.658;37.498;2022-10-23T04:52:55;98717.81;;;2.83;100.00
72423;BME280;60413;55.658;37.498;2022-10-23T04:55:51;98749.88;;;3.10;100.00
72423;BME280;60413;55.658;37.498;2022-10-23T04:58:26;98759.13;;;3.06;100.00
72423;BME280;60413;55.658;37.498;2022-10-23T05:00:55;98735.28;;;2.96;100.00
72423;BME280;60413;55.658;37.498;2022-10-23T05:03:25;98797.19;;;3.41;100.00
72423;BME280;60413;55.658;37.498;2022-10-23T05:05:52;98754.53;;;3.22;100.00
72423;BME280;60413;55.658;37.498;2022-10-23T05:08:28;98784.41;;;3.52;100.00
72423;BME280;60413;55.658;37.498;2022-10-23T05:11:32;98759.94;;;3.33;100.00
72423;BME280;60413;55.658;37.498;2022-10-23T05:14:02;98742.91;;;3.24;100.00
72423;BME280;60413;55.658;37.498;2022-10-23T05:16:39;98751.31;;;3.46;100.00
72423;BME280;60413;55.658;37.498;2022-10-23T05:19:09;98741.09;;;3.51;100.00
72423;BME280;60413;55.658;37.498;2022-10-23T05:21:38;98742.91;;;3.58;100.00
72423;BME280;60413;55.658;37.498;2022-10-23T05:24:09;98707.44;;;3.43;100.00
72423;BME280;60413;55.658;37.498;2022-10-23T05:26:35;98792.19;;;3.93;100.00
72423;BME280;60413;55.658;37.498;2022-10-23T05:29:05;98708.63;;;3.41;100.00
72423;BME280;60413;55.658;37.498;2022-10-23T05:31:32;98729.88;;;3.58;100.00
72423;BME280;60413;55.658;37.498;2022-10-23T05:34:05;98738.28;;;3.66;100.00
72423;BME280;60413;55.658;37.498;2022-10-23T05:36:33;98776.78;;;3.84;100.00
72423;BME280;60413;55.658;37.498;2022-10-23T05:39:03;98749.69;;;3.72;100.00
72423;BME280;60413;55.658;37.498;2022-10-23T05:41:30;98780.94;;;3.99;100.00
72423;BME280;60413;55.658;37.498;2022-10-23T05:44:04;98716.38;;;3.81;100.00
72423;BME280;60413;55.658;37.498;2022-10-23T05:46:49;98699.56;;;3.83;100.00
72423;BME280;60413;55.658;37.498;2022-10-23T05:49:47;98773.84;;;4.39;100.00
72423;BME280;60413;55.658;37.498;2022-10-23T05:52:13;98749.09;;;4.49;100.00
72423;BME280;60413;55.658;37.498;2022-10-23T05:54:59;98696.78;;;4.30;100.00
72423;BME280;60413;55.658;37.498;2022-10-23T05:57:46;98715.63;;;4.32;100.00
72423;BME280;60413;55.658;37.498;2022-10-23T06:00:16;98715.47;;;4.20;100.00
72423;BME280;60413;55.658;37.498;2022-10-23T06:02:51;98758.75;;;4.41;100.00
72423;BME280;60413;55.658;37.498;2022-10-23T06:05:32;98740.91;;;4.38;100.00
72423;BME280;60413;55.658;37.498;2022-10-23T06:08:17;98753.31;;;4.50;100.00
72423;BME280;60413;55.658;37.498;2022-10-23T06:10:46;98684.41;;;4.12;100.00
72423;BME280;60413;55.658;37.498;2022-10-23T06:13:12;98750.69;;;4.56;100.00
72423;BME280;60413;55.658;37.498;2022-10-23T06:15:39;98674.41;;;4.09;100.00
72423;BME280;60413;55.658;37.498;2022-10-23T06:18:14;98740.63;;;4.60;100.00
72423;BME280;60413;55.658;37.498;2022-10-23T06:20:53;98705.75;;;4.41;100.00
72423;BME280;60413;55.658;37.498;2022-10-23T06:23:23;98719.81;;;4.40;100.00
72423;BME280;60413;55.658;37.498;2022-10-23T06:26:17;98714.91;;;4.63;100.00
72423;BME280;60413;55.658;37.498;2022-10-23T06:28:55;98662.66;;;4.32;100.00
72423;BME280;60413;55.658;37.498;2022-10-23T06:31:21;98693.25;;;4.56;100.00
72423;BME280;60413;55.658;37.498;2022-10-23T06:33:57;98741.84;;;4.89;100.00
72423;BME280;60413;55.658;37.498;2022-10-23T06:36:24;98698.78;;;4.73;100.00
72423;BME280;60413;55.658;37.498;2022-10-23T06:39:00;98687.25;;;4.81;100.00
72423;BME280;60413;55.658;37.498;2022-10-23T06:41:46;98711.88;;;4.98;100.00
72423;BME280;60413;55.658;37.498;2022-10-23T06:44:32;98654.19;;;4.75;100.00
72423;BME280;60413;55.658;37.498;2022-10-23T06:47:07;98681.16;;;4.94;100.00
72423;BME280;60413;55.658;37.498;2022-10-23T06:50:07;98677.56;;;4.95;100.00
72423;BME280;60413;55.658;37.498;2022-10-23T06:52:33;98662.25;;;4.98;100.00
72423;BME280;60413;55.658;37.498;2022-10-23T06:55:08;98652.50;;;5.12;100.00
72423;BME280;60413;55.658;37.498;2022-10-23T06:57:37;98687.34;;;5.50;100.00
72423;BME280;60413;55.658;37.498;2022-10-23T07:00:06;98633.69;;;5.04;100.00
72423;BME280;60413;55.658;37.498;2022-10-23T07:02:42;98669.53;;;5.40;100.00
72423;BME280;60413;55.658;37.498;2022-10-23T07:05:16;98682.41;;;5.60;100.00
72423;BME280;60413;55.658;37.498;2022-10-23T07:07:46;98643.03;;;5.36;100.00
72423;BME280;60413;55.658;37.498;2022-10-23T07:10:17;98624.63;;;5.06;100.00
72423;BME280;60413;55.658;37.498;2022-10-23T07:12:46;98631.69;;;5.24;100.00
72423;BME280;60413;55.658;37.498;2022-10-23T07:15:45;98616.56;;;5.08;100.00
72423;BME280;60413;55.658;37.498;2022-10-23T07:18:17;98646.66;;;5.35;100.00
72423;BME280;60413;55.658;37.498;2022-10-23T07:21:19;98633.75;;;5.41;100.00
72423;BME280;60413;55.658;37.498;2022-10-23T07:23:51;98654.66;;;5.41;100.00
72423;BME280;60413;55.658;37.498;2022-10-23T07:26:18;98681.53;;;5.66;100.00
72423;BME280;60413;55.658;37.498;2022-10-23T07:28:46;98678.34;;;5.64;100.00
72423;BME280;60413;55.658;37.498;2022-10-23T07:31:24;98613.59;;;5.23;100.00
72423;BME280;60413;55.658;37.498;2022-10-23T07:34:28;98665.22;;;5.27;100.00
72423;BME280;60413;55.658;37.498;2022-10-23T07:37:15;98646.28;;;5.32;100.00
72423;BME280;60413;55.658;37.498;2022-10-23T07:39:41;98653.50;;;5.36;100.00
72423;BME280;60413;55.658;37.498;2022-10-23T07:42:09;98621.91;;;5.19;100.00
72423;BME280;60413;55.658;37.498;2022-10-23T07:44:37;98610.41;;;5.20;100.00
72423;BME280;60413;55.658;37.498;2022-10-23T07:47:03;98635.47;;;5.28;100.00
72423;BME280;60413;55.658;37.498;2022-10-23T07:49:29;98591.09;;;5.03;100.00
72423;BME280;60413;55.658;37.498;2022-10-23T07:52:04;98658.13;;;5.53;100.00
72423;BME280;60413;55.658;37.498;2022-10-23T07:54:42;98615.72;;;5.32;100.00
72423;BME280;60413;55.658;37.498;2022-10-23T07:57:15;98623.22;;;5.47;100.00
72423;BME280;60413;55.658;37.498;2022-10-23T07:59:46;98624.97;;;5.35;100.00
72423;BME280;60413;55.658;37.498;2022-10-23T08:02:14;98626.78;;;5.53;100.00
72423;BME280;60413;55.658;37.498;2022-10-23T08:04:42;98616.09;;;5.54;100.00
72423;BME280;60413;55.658;37.498;2022-10-23T08:07:31;98652.03;;;5.41;100.00
72423;BME280;60413;55.658;37.498;2022-10-23T08:09:57;98601.78;;;5.20;100.00
72423;BME280;60413;55.658;37.498;2022-10-23T08:12:31;98630.91;;;5.42;100.00
72423;BME280;60413;55.658;37.498;2022-10-23T08:14:59;98641.81;;;5.57;100.00
72423;BME280;60413;55.658;37.498;2022-10-23T08:17:33;98648.78;;;5.64;100.00
72423;BME280;60413;55.658;37.498;2022-10-23T08:20:10;98622.56;;;5.33;100.00
72423;BME280;60413;55.658;37.498;2022-10-23T08:22:41;98598.03;;;4.91;100.00
72423;BME280;60413;55.658;37.498;2022-10-23T08:25:10;98596.22;;;4.91;100.00
72423;BME280;60413;55.658;37.498;2022-10-23T08:27:37;98633.09;;;5.27;100.00
72423;BME280;60413;55.658;37.498;2022-10-23T08:30:04;98584.91;;;4.97;100.00
72423;BME280;60413;55.658;37.498;2022-10-23T08:32:31;98596.41;;;5.15;100.00
72423;BME280;60413;55.658;37.498;2022-10-23T08:34:58;98653.66;;;5.60;100.00
72423;BME280;60413;55.658;37.498;2022-10-23T08:37:30;98618.84;;;5.23;100.00
72423;BME280;60413;55.658;37.498;2022-10-23T08:39:56;98639.81;;;5.34;100.00
72423;BME280;60413;55.658;37.498;2022-10-23T08:48:50;98609.06;;;5.18;100.00
72423;BME280;60413;55.658;37.498;2022-10-23T08:51:45;98614.28;;;5.18;100.00
72423;BME280;60413;55.658;37.498;2022-10-23T08:57:20;98623.84;;;5.24;100.00
72423;BME280;60413;55.658;37.498;2022-10-23T09:00:03;98573.75;;;5.09;100.00
72423;BME280;60413;55.658;37.498;2022-10-23T09:02:50;98637.00;;;5.54;100.00
72423;BME280;60413;55.658;37.498;2022-10-23T09:05:28;98617.44;;;5.64;100.00
72423;BME280;60413;55.658;37.498;2022-10-23T09:19:29;98540.75;;;5.14;100.00
72423;BME280;60413;55.658;37.498;2022-10-23T09:21:56;98603.63;;;5.56;100.00
72423;BME280;60413;55.658;37.498;2022-10-23T09:24:25;98551.28;;;5.45;100.00
72423;BME280;60413;55.658;37.498;2022-10-23T09:26:52;98550.63;;;5.31;100.00
72423;BME280;60413;55.658;37.498;2022-10-23T09:29:30;98565.66;;;5.54;100.00
72423;BME280;60413;55.658;37.498;2022-10-23T09:31:59;98549.09;;;5.60;100.00
72423;BME280;60413;55.658;37.498;2022-10-23T09:34:30;98602.44;;;6.08;100.00
72423;BME280;60413;55.658;37.498;2022-10-23T09:37:20;98552.25;;;5.81;100.00
72423;BME280;60413;55.658;37.498;2022-10-23T09:39:47;98574.13;;;6.05;100.00
72423;BME280;60413;55.658;37.498;2022-10-23T09:42:24;98577.19;;;6.02;100.00
72423;BME280;60413;55.658;37.498;2022-10-23T09:44:55;98528.25;;;5.72;100.00
72423;BME280;60413;55.658;37.498;2022-10-23T09:47:23;98540.59;;;5.65;100.00
72423;BME280;60413;55.658;37.498;2022-10-23T09:49:56;98529.69;;;5.68;100.00
72423;BME280;60413;55.658;37.498;2022-10-23T09:52:35;98553.00;;;5.69;100.00
72423;BME280;60413;55.658;37.498;2022-10-23T09:55:18;98562.75;;;5.92;100.00
72423;BME280;60413;55.658;37.498;2022-10-23T09:57:46;98538.63;;;5.79;100.00
72423;BME280;60413;55.658;37.498;2022-10-23T10:00:23;98516.47;;;5.63;100.00
72423;BME280;60413;55.658;37.498;2022-10-23T10:03:03;98570.91;;;6.03;100.00
72423;BME280;60413;55.658;37.498;2022-10-23T10:05:59;98540.53;;;5.71;100.00
72423;BME280;60413;55.658;37.498;2022-10-23T10:08:50;98556.25;;;5.83;100.00
72423;BME280;60413;55.658;37.498;2022-10-23T10:11:34;98543.28;;;5.77;100.00
72423;BME280;60413;55.658;37.498;2022-10-23T10:15:17;98564.91;;;5.84;100.00
72423;BME280;60413;55.658;37.498;2022-10-23T10:17:39;98517.75;;;5.42;100.00
72423;BME280;60413;55.658;37.498;2022-10-23T10:28:27;98557.09;;;5.65;100.00
72423;BME280;60413;55.658;37.498;2022-10-23T10:37:32;98542.34;;;5.52;100.00
72423;BME280;60413;55.658;37.498;2022-10-23T10:40:30;98539.81;;;5.46;100.00
72423;BME280;60413;55.658;37.498;2022-10-23T10:46:16;98534.09;;;5.37;100.00
72423;BME280;60413;55.658;37.498;2022-10-23T10:49:16;98539.22;;;5.44;100.00
72423;BME280;60413;55.658;37.498;2022-10-23T10:55:32;98501.66;;;5.26;100.00
72423;BME280;60413;55.658;37.498;2022-10-23T10:58:20;98525.66;;;5.35;100.00
72423;BME280;60413;55.658;37.498;2022-10-23T11:00:54;98473.56;;;5.03;100.00
72423;BME280;60413;55.658;37.498;2022-10-23T11:03:42;98493.91;;;5.19;100.00
72423;BME280;60413;55.658;37.498;2022-10-23T11:06:19;98518.75;;;5.41;100.00
72423;BME280;60413;55.658;37.498;2022-10-23T11:08:51;98469.28;;;5.09;100.00
72423;BME280;60413;55.658;37.498;2022-10-23T11:11:25;98496.09;;;5.34;100.00
72423;BME280;60413;55.658;37.498;2022-10-23T11:13:53;98484.81;;;5.22;100.00
72423;BME280;60413;55.658;37.498;2022-10-23T11:16:30;98492.13;;;5.50;100.00
72423;BME280;60413;55.658;37.498;2022-10-23T11:19:09;98481.03;;;5.36;100.00
72423;BME280;60413;55.658;37.498;2022-10-23T11:27:57;98479.25;;;5.49;100.00
72423;BME280;60413;55.658;37.498;2022-10-23T11:30:37;98478.72;;;5.28;100.00
72423;BME280;60413;55.658;37.498;2022-10-23T11:33:42;98482.41;;;5.20;100.00
72423;BME280;60413;55.658;37.498;2022-10-23T11:36:55;98471.75;;;5.22;100.00
72423;BME280;60413;55.658;37.498;2022-10-23T11:39:27;98407.13;;;4.80;100.00
72423;BME280;60413;55.658;37.498;2022-10-23T11:44:42;98458.59;;;5.29;100.00
72423;BME280;60413;55.658;37.498;2022-10-23T11:47:35;98462.44;;;5.45;100.00
72423;BME280;60413;55.658;37.498;2022-10-23T11:53:05;98393.19;;;5.05;100.00
72423;BME280;60413;55.658;37.498;2022-10-23T11:55:37;98408.06;;;5.05;100.00
72423;BME280;60413;55.658;37.498;2022-10-23T12:00:38;98399.50;;;4.97;100.00
72423;BME280;60413;55.658;37.498;2022-10-23T12:03:17;98399.28;;;4.99;100.00
72423;BME280;60413;55.658;37.498;2022-10-23T12:05:58;98385.03;;;4.83;100.00
72423;BME280;60413;55.658;37.498;2022-10-23T12:08:28;98460.25;;;5.42;100.00
72423;BME280;60413;55.658;37.498;2022-10-23T12:11:02;98392.41;;;5.05;100.00
72423;BME280;60413;55.658;37.498;2022-10-23T12:16:05;98407.38;;;5.09;100.00
72423;BME280;60413;55.658;37.498;2022-10-23T12:18:55;98458.09;;;5.38;100.00
72423;BME280;60413;55.658;37.498;2022-10-23T12:21:26;98387.81;;;5.00;100.00
72423;BME280;60413;55.658;37.498;2022-10-23T12:27:05;98407.72;;;5.31;100.00
72423;BME280;60413;55.658;37.498;2022-10-23T12:30:23;98373.59;;;4.96;100.00
72423;BME280;60413;55.658;37.498;2022-10-23T12:33:15;98403.84;;;5.04;100.00
72423;BME280;60413;55.658;37.498;2022-10-23T12:35:54;98437.31;;;5.44;100.00
72423;BME280;60413;55.658;37.498;2022-10-23T12:38:27;98389.97;;;5.22;100.00
72423;BME280;60413;55.658;37.498;2022-10-23T12:41:25;98431.56;;;5.53;100.00
72423;BME280;60413;55.658;37.498;2022-10-23T12:44:29;98426.59;;;5.33;100.00
72423;BME280;60413;55.658;37.498;2022-10-23T12:47:02;98385.28;;;4.93;100.00
72423;BME280;60413;55.658;37.498;2022-10-23T12:49:32;98377.31;;;4.88;100.00
72423;BME280;60413;55.658;37.498;2022-10-23T12:52:16;98425.72;;;5.21;100.00
72423;BME280;60413;55.658;37.498;2022-10-23T12:55:12;98364.50;;;4.87;100.00
72423;BME280;60413;55.658;37.498;2022-10-23T12:57:57;98381.81;;;4.99;100.00
72423;BME280;60413;55.658;37.498;2022-10-23T13:00:26;98395.06;;;5.16;100.00
72423;BME280;60413;55.658;37.498;2022-10-23T13:03:19;98414.41;;;5.27;100.00
72423;BME280;60413;55.658;37.498;2022-10-23T13:06:00;98363.91;;;4.85;100.00
72423;BME280;60413;55.658;37.498;2022-10-23T13:08:42;98368.16;;;4.97;100.00
72423;BME280;60413;55.658;37.498;2022-10-23T13:11:46;98354.00;;;5.05;100.00
72423;BME280;60413;55.658;37.498;2022-10-23T13:15:34;98410.38;;;5.43;100.00
72423;BME280;60413;55.658;37.498;2022-10-23T13:17:45;98407.78;;;5.43;100.00
72423;BME280;60413;55.658;37.498;2022-10-23T13:23:15;98342.69;;;5.11;100.00
72423;BME280;60413;55.658;37.498;2022-10-23T13:25:58;98335.16;;;5.03;100.00
72423;BME280;60413;55.658;37.498;2022-10-23T13:28:28;98341.47;;;5.26;100.00
72423;BME280;60413;55.658;37.498;2022-10-23T13:33:48;98334.38;;;5.14;100.00
72423;BME280;60413;55.658;37.498;2022-10-23T13:36:28;98331.34;;;5.17;100.00
72423;BME280;60413;55.658;37.498;2022-10-23T13:39:14;98390.97;;;5.51;100.00
72423;BME280;60413;55.658;37.498;2022-10-23T13:41:49;98382.56;;;5.49;100.00
72423;BME280;60413;55.658;37.498;2022-10-23T13:44:22;98378.13;;;5.49;100.00
72423;BME280;60413;55.658;37.498;2022-10-23T13:47:09;98398.41;;;5.66;100.00
72423;BME280;60413;55.658;37.498;2022-10-23T13:50:02;98364.97;;;5.56;100.00
72423;BME280;60413;55.658;37.498;2022-10-23T13:52:41;98359.47;;;5.46;100.00
72423;BME280;60413;55.658;37.498;2022-10-23T13:55:22;98326.75;;;5.31;100.00
72423;BME280;60413;55.658;37.498;2022-10-23T13:57:54;98391.84;;;5.75;100.00
72423;BME280;60413;55.658;37.498;2022-10-23T14:00:39;98383.31;;;5.80;100.00
72423;BME280;60413;55.658;37.498;2022-10-23T14:03:26;98308.78;;;5.35;100.00
72423;BME280;60413;55.658;37.498;2022-10-23T14:06:19;98389.56;;;5.79;100.00
72423;BME280;60413;55.658;37.498;2022-10-23T14:09:28;98364.84;;;5.63;100.00
72423;BME280;60413;55.658;37.498;2022-10-23T14:11:57;98314.25;;;5.33;100.00
72423;BME280;60413;55.658;37.498;2022-10-23T14:14:26;98374.31;;;5.64;100.00
72423;BME280;60413;55.658;37.498;2022-10-23T14:17:07;98366.03;;;5.67;100.00
72423;BME280;60413;55.658;37.498;2022-10-23T14:19:44;98346.88;;;5.54;100.00
72423;BME280;60413;55.658;37.498;2022-10-23T14:22:56;98329.91;;;5.33;100.00
72423;BME280;60413;55.658;37.498;2022-10-23T14:26:51;98361.22;;;5.64;100.00
72423;BME280;60413;55.658;37.498;2022-10-23T14:30:55;98299.88;;;5.12;100.00
72423;BME280;60413;55.658;37.498;2022-10-23T14:33:36;98330.00;;;5.27;100.00
72423;BME280;60413;55.658;37.498;2022-10-23T14:44:26;98279.19;;;5.11;100.00
72423;BME280;60413;55.658;37.498;2022-10-23T14:47:46;98341.28;;;5.39;100.00
72423;BME280;60413;55.658;37.498;2022-10-23T14:50:55;98277.84;;;5.08;100.00
72423;BME280;60413;55.658;37.498;2022-10-23T14:53:58;98317.31;;;5.42;100.00
72423;BME280;60413;55.658;37.498;2022-10-23T14:56:48;98349.41;;;5.61;100.00
72423;BME280;60413;55.658;37.498;2022-10-23T15:00:12;98286.50;;;5.20;100.00
72423;BME280;60413;55.658;37.498;2022-10-23T15:02:46;98315.72;;;5.41;100.00
72423;BME280;60413;55.658;37.498;2022-10-23T15:05:24;98286.94;;;5.29;100.00
72423;BME280;60413;55.658;37.498;2022-10-23T15:07:58;98341.44;;;5.68;100.00
72423;BME280;60413;55.658;37.498;2022-10-23T15:15:05;98340.78;;;5.72;100.00
72423;BME280;60413;55.658;37.498;2022-10-23T15:18:06;98280.72;;;5.30;100.00
72423;BME280;60413;55.658;37.498;2022-10-23T15:21:33;98285.06;;;5.48;100.00
72423;BME280;60413;55.658;37.498;2022-10-23T15:24:03;98258.00;;;5.31;100.00
72423;BME280;60413;55.658;37.498;2022-10-23T15:26:57;98250.47;;;5.23;100.00
72423;BME280;60413;55.658;37.498;2022-10-23T15:29:25;98246.50;;;5.20;100.00